»·PEaware :: N1246W KMIT-KSBP

N1246W :: KMIT-KSBP

FLIGHT INFORMATION

Flight Status: Arrived
Operator: Privately registered:
United States
More flights under this callsign
Pilot: David W. (18435)
Aircraft: CESSNA 172 SKYHAWK
(C172)
More flights by this aircraft type
Origin: KMIT Shafter-Minter
United States
Destination: KSBP San Luis Co Regl
United States
More flights between these airports :: More routes between these airports
Route: FLW
File this flight plan on PilotEdge
Remarks:
Altitude:
(Current/Filed)
6,500ft
Speed:
(Current/Filed)
110kts
Departed: 07-Nov-18 04:12 PM
Arrived: 07-Nov-18 05:14 PM
Distance/Time
Traveled:
73nm/1:02
Distance/Time
To Go:
Arrived

Flight Plot

Page will automatically refresh every two minutes.


Map Options




Map Legend


Flown Route
Filed Route
Departure Airport
Arrival Airport
Navaid (VOR, NDB)
Fix

Horizontal Profiles

Position Reports

Time Latitude Longitude Heading Altitude Ground
Speed
07-Nov-18 16:06 35.503975 -119.183801 357 423ft 0kts
07-Nov-18 16:07 35.503975 -119.183801 357 423ft 0kts
07-Nov-18 16:08 35.503975 -119.183801 357 423ft 0kts
07-Nov-18 16:09 35.503975 -119.183801 358 423ft 0kts
07-Nov-18 16:10 35.503975 -119.183801 358 423ft 0kts
07-Nov-18 16:11 35.503603 -119.183958 178 423ft 7kts
07-Nov-18 16:12 35.503019 -119.185060 271 423ft 0kts
07-Nov-18 16:13 35.503030 -119.187106 269 423ft 13kts
07-Nov-18 16:14 35.502625 -119.189635 222 423ft 7kts
07-Nov-18 16:15 35.511941 -119.203364 299 758ft 74kts
07-Nov-18 16:16 35.501679 -119.200475 116 1451ft 74kts
07-Nov-18 16:17 35.483957 -119.201450 214 1880ft 93kts
07-Nov-18 16:18 35.468734 -119.230939 240 2205ft 93kts
07-Nov-18 16:19 35.462815 -119.243281 239 2517ft 85kts
07-Nov-18 16:20 35.462815 -119.243281 239 2517ft 85kts
07-Nov-18 16:21 35.458837 -119.251488 239 2744ft 80kts
07-Nov-18 16:22 35.448021 -119.273253 239 3414ft 68kts
07-Nov-18 16:23 35.438168 -119.290436 226 3890ft 67kts
07-Nov-18 16:24 35.426638 -119.311497 239 4343ft 76kts
07-Nov-18 16:25 35.414824 -119.332931 239 4844ft 75kts
07-Nov-18 16:26 35.402592 -119.353741 239 5303ft 76kts
07-Nov-18 16:27 35.390570 -119.373729 239 5815ft 65kts
07-Nov-18 16:28 35.379986 -119.385481 236 6041ft 71kts
07-Nov-18 16:29 35.376325 -119.390980 239 6209ft 64kts
07-Nov-18 16:30 35.376325 -119.390980 239 6209ft 64kts
07-Nov-18 16:31 35.371080 -119.398004 226 6326ft 65kts
07-Nov-18 16:32 35.355680 -119.416753 239 6563ft 80kts
07-Nov-18 16:33 35.340031 -119.441785 239 6603ft 102kts
07-Nov-18 16:34 35.322644 -119.470225 239 6599ft 105kts
07-Nov-18 16:35 35.305225 -119.498646 239 6599ft 104kts
07-Nov-18 16:36 35.288027 -119.526605 239 6599ft 104kts
07-Nov-18 16:37 35.271911 -119.555791 245 6594ft 103kts
07-Nov-18 16:38 35.257291 -119.585825 245 6588ft 102kts
07-Nov-18 16:39 35.242594 -119.615749 245 6580ft 102kts
07-Nov-18 16:40 35.227843 -119.645455 245 6571ft 102kts
07-Nov-18 16:41 35.213239 -119.674429 244 6565ft 102kts
07-Nov-18 16:42 35.197361 -119.703401 242 6554ft 102kts
07-Nov-18 16:43 35.181266 -119.731973 242 6546ft 101kts
07-Nov-18 16:44 35.165191 -119.760219 242 6539ft 101kts
07-Nov-18 16:45 35.149003 -119.788304 242 6540ft 101kts
07-Nov-18 16:46 35.131658 -119.815668 238 6542ft 102kts
07-Nov-18 16:47 35.109989 -119.839557 229 6543ft 106kts
07-Nov-18 16:48 35.090395 -119.864843 273 6541ft 97kts
07-Nov-18 16:49 35.091229 -119.897949 275 6544ft 98kts
07-Nov-18 16:50 35.091966 -119.931265 275 6588ft 94kts
07-Nov-18 16:51 35.092618 -119.965482 275 6492ft 101kts
07-Nov-18 16:52 35.093311 -119.999583 276 6494ft 99kts
07-Nov-18 16:53 35.094412 -120.033373 279 6497ft 99kts
07-Nov-18 16:54 35.096559 -120.067092 279 6501ft 100kts
07-Nov-18 16:55 35.099102 -120.100956 281 6499ft 100kts
07-Nov-18 16:56 35.102403 -120.135127 280 6502ft 101kts
07-Nov-18 16:57 35.105559 -120.169412 282 6504ft 101kts
07-Nov-18 16:58 35.109085 -120.203812 282 6507ft 102kts
07-Nov-18 16:59 35.112787 -120.238241 282 6509ft 102kts
07-Nov-18 17:00 35.116196 -120.272989 283 6444ft 103kts
07-Nov-18 17:01 35.121772 -120.306958 289 5915ft 101kts
07-Nov-18 17:02 35.131280 -120.339343 297 4989ft 99kts
07-Nov-18 17:03 35.142201 -120.369409 297 4177ft 85kts
07-Nov-18 17:04 35.149142 -120.393894 290 4021ft 68kts
07-Nov-18 17:05 35.152349 -120.416780 284 4111ft 68kts
07-Nov-18 17:06 35.153030 -120.439782 281 4487ft 69kts
07-Nov-18 17:07 35.155442 -120.462580 290 4356ft 66kts
07-Nov-18 17:08 35.159557 -120.484605 292 4180ft 68kts
07-Nov-18 17:09 35.165959 -120.506695 300 3944ft 68kts
07-Nov-18 17:10 35.173269 -120.527834 301 3738ft 66kts
07-Nov-18 17:11 35.183080 -120.546974 308 3390ft 66kts
07-Nov-18 17:12 35.193727 -120.565227 308 2931ft 65kts
07-Nov-18 17:13 35.204585 -120.583077 310 2317ft 65kts
07-Nov-18 17:14 35.214600 -120.601706 309 1720ft 65kts
07-Nov-18 17:15 35.224976 -120.619073 307 1084ft 62kts
07-Nov-18 17:16 35.234461 -120.636099 308 211ft 48kts
07-Nov-18 17:17 35.237511 -120.639921 6 178ft 0kts
07-Nov-18 17:18 35.238207 -120.640019 30 178ft 5kts
07-Nov-18 17:19 35.238818 -120.639153 0 178ft 0kts

Navigation Log

Ident Type
1. KMIT Airport
2. FLW Navaid
3. KSBP Airport